New Bern, NC

6:17 AM EDT on May 27, 2015 (GMT -0400)
Fairfield Harbour | | Change Station
CLOSE
Current Station
Personal Weather Station
Location: New Bern, NC
Elevation: 20 ft
Nearby Weather Stations

Elev 20 ft 35.08 °N, 76.98 °W | Updated 1 second ago

Overcast
Overcast
73.4 °F
Feels Like 73 °F
N
0.0
Wind Variable Wind from SE
Gusts 0.0 mph

Today
High -- | Low -- °F
--% Chance of Precip.
Yesterday
High -- | Low -- °F
Precip. -- in
5:57 AM 8:13 PM
Waxing Gibbous, 66% visible
Pressure 30.26 in
Visibility 10.0 miles
Clouds Few 2400 ft
Mostly Cloudy 3100 ft
Overcast 3800 ft
Heat Index 73 °F
Dew Point 68 °F
Humidity 82%
Rainfall 0.00 in
Snow Depth Not available.
UV 0.0 out of 12
Pollen 7.30 out of 12
Air Quality Not available.
Flu Activity No Activity
METAR KEWN 270954Z 18003KT 10SM FEW024 BKN031 OVC038 22/19 A3026 RMK AO2 RAB12E22 SLP247 P0000 T02170194

More Conditions Fewer Conditions

Pressure 30.26 in
Visibility 10.0 miles
Clouds Few 2400 ft
Mostly Cloudy 3100 ft
Overcast 3800 ft
Heat Index 73 °F
Dew Point 68 °F
Humidity 82%
Rainfall 0.00 in
Snow Depth Not available.
UV 0.0 out of 12
Pollen 7.30 out of 12
Air Quality Not available.
Flu Activity No Activity
METAR KEWN 270954Z 18003KT 10SM FEW024 BKN031 OVC038 22/19 A3026 RMK AO2 RAB12E22 SLP247 P0000 T02170194

More Conditions Fewer Conditions

10-Day Weather Forecast

Almanac

Astronomy

May. 27, 2015 Rise Set
Actual Time
Civil Twilight
Nautical Twilight
Astronomical Twilight
Moon
Length of Visible Light
Length of Day
Tomorrow will be .
, % of the Moon is Illuminated

Today's Extremes

State Highs State Lows

Community

WunderPhotos

Upload Photos

1,824,635 photos uploaded!

WunderBlogs® & News

Nearby

Air Quality

  Air Quality AQ Index Pollutant
Not available.

Snow Depth

Station Depth Elevation

Earthquake Activity

City Distance Mag. Time & Date
Minimum magnitude displayed is 2.5.

Coastal Water Temperatures

Place Temperature

Stations

Nearby Weather Stations

Station Location Temp. Windchill Dew Point Humidity Wind Precip. Elev Updated Type